Main page
METAR-TAF:

METAR-TAF

Airports :

Sharm El Sheikh International Airport

Sharm el-Sheikh, Egypt

latitude: 27-58N, longitude: 034-23E, elevation: 50 m

Current weather observation

The report was made 1 hour and 3 minutes ago, at 17:00 UTC
Wind 8 kt from the North
Temperature 26°C
Humidity 45%
Pressure 1013 hPa
Visibility 10 km or more
no clouds below 1500 m and no cumulonimbus

METAR: HESH 241700Z 35008KT CAVOK 26/13 Q1013 NOSIG

Time: 20:03 (18:03 UTC)

Forecast

The report was made 1 hour and 3 minutes ago, at 17:00 UTC
Forecast valid from 24 at 18 UTC to 25 at 24 UTC
Wind 13 kt from the North
Visibility 10 km or more
no clouds below 1500 m and no cumulonimbus

TAF: HESH 241700Z 2418/2524 36013KT CAVOK

Weather observations and forecasts of more than 4000 airports (METAR and TAF reports).

The available stations are represented by yellow and red dots on the map.

Hover mouse over dot to see the name of the station.

Then click to see weather observations and forecasts.

To change the map : click on the green buttons with a black cross to zoom in, on the green button with a dash to zoom out, or on the green arrows for adjacent maps.


METAR-TAF: